sensor_id;sensor_type;location;lat;lon;timestamp;temperature;humidity
16829;DHT22;8531;48.078;11.968;2023-04-01T00:01:38;8.30;99.90
16829;DHT22;8531;48.078;11.968;2023-04-01T00:04:04;8.20;99.90
16829;DHT22;8531;48.078;11.968;2023-04-01T00:06:30;8.20;99.90
16829;DHT22;8531;48.078;11.968;2023-04-01T00:08:56;8.20;99.90
16829;DHT22;8531;48.078;11.968;2023-04-01T00:11:22;8.20;99.90
16829;DHT22;8531;48.078;11.968;2023-04-01T00:13:48;8.20;99.90
16829;DHT22;8531;48.078;11.968;2023-04-01T00:16:13;8.20;99.90
16829;DHT22;8531;48.078;11.968;2023-04-01T00:18:39;8.10;99.90
16829;DHT22;8531;48.078;11.968;2023-04-01T00:21:06;8.10;99.90
16829;DHT22;8531;48.078;11.968;2023-04-01T00:23:32;8.10;99.90
16829;DHT22;8531;48.078;11.968;2023-04-01T00:26:00;8.00;99.90
16829;DHT22;8531;48.078;11.968;2023-04-01T00:28:26;8.00;99.90
16829;DHT22;8531;48.078;11.968;2023-04-01T00:30:52;8.00;99.90
16829;DHT22;8531;48.078;11.968;2023-04-01T00:33:18;8.00;99.90
16829;DHT22;8531;48.078;11.968;2023-04-01T00:35:44;8.00;99.90
16829;DHT22;8531;48.078;11.968;2023-04-01T00:38:10;8.00;99.90
16829;DHT22;8531;48.078;11.968;2023-04-01T00:40:41;8.00;99.90
16829;DHT22;8531;48.078;11.968;2023-04-01T00:43:16;8.00;99.90
16829;DHT22;8531;48.078;11.968;2023-04-01T00:45:44;7.90;99.90
16829;DHT22;8531;48.078;11.968;2023-04-01T00:48:15;7.90;99.90
16829;DHT22;8531;48.078;11.968;2023-04-01T00:50:46;7.90;99.90
16829;DHT22;8531;48.078;11.968;2023-04-01T00:53:13;7.90;99.90
16829;DHT22;8531;48.078;11.968;2023-04-01T00:55:42;7.90;99.90
16829;DHT22;8531;48.078;11.968;2023-04-01T00:58:14;8.00;99.90
16829;DHT22;8531;48.078;11.968;2023-04-01T01:00:42;7.90;99.90
16829;DHT22;8531;48.078;11.968;2023-04-01T01:03:08;7.90;99.90
16829;DHT22;8531;48.078;11.968;2023-04-01T01:05:53;7.90;99.90
16829;DHT22;8531;48.078;11.968;2023-04-01T01:11:05;7.90;99.90
16829;DHT22;8531;48.078;11.968;2023-04-01T01:16:28;7.90;99.90
16829;DHT22;8531;48.078;11.968;2023-04-01T01:19:10;7.90;99.90
16829;DHT22;8531;48.078;11.968;2023-04-01T01:25:16;7.90;99.90
16829;DHT22;8531;48.078;11.968;2023-04-01T01:27:51;8.00;99.90
16829;DHT22;8531;48.078;11.968;2023-04-01T01:30:39;8.00;99.90
16829;DHT22;8531;48.078;11.968;2023-04-01T01:35:54;8.00;99.90
16829;DHT22;8531;48.078;11.968;2023-04-01T01:38:24;8.00;99.90
16829;DHT22;8531;48.078;11.968;2023-04-01T01:40:52;8.00;99.90
16829;DHT22;8531;48.078;11.968;2023-04-01T01:43:26;8.00;99.90
16829;DHT22;8531;48.078;11.968;2023-04-01T01:45:58;8.00;99.90
16829;DHT22;8531;48.078;11.968;2023-04-01T01:48:27;8.00;99.90
16829;DHT22;8531;48.078;11.968;2023-04-01T01:50:55;8.00;99.90
16829;DHT22;8531;48.078;11.968;2023-04-01T01:53:20;8.00;99.90
16829;DHT22;8531;48.078;11.968;2023-04-01T01:55:47;8.00;99.90
16829;DHT22;8531;48.078;11.968;2023-04-01T01:58:33;8.00;99.90
16829;DHT22;8531;48.078;11.968;2023-04-01T02:01:07;8.00;99.90
16829;DHT22;8531;48.078;11.968;2023-04-01T02:03:36;8.00;99.90
16829;DHT22;8531;48.078;11.968;2023-04-01T02:06:06;8.00;99.90
16829;DHT22;8531;48.078;11.968;2023-04-01T02:08:52;8.00;99.90
16829;DHT22;8531;48.078;11.968;2023-04-01T02:11:31;8.00;99.90
16829;DHT22;8531;48.078;11.968;2023-04-01T02:14:22;8.00;99.90
16829;DHT22;8531;48.078;11.968;2023-04-01T02:16:56;8.10;99.90
16829;DHT22;8531;48.078;11.968;2023-04-01T02:19:27;8.00;99.90
16829;DHT22;8531;48.078;11.968;2023-04-01T02:22:00;8.00;99.90
16829;DHT22;8531;48.078;11.968;2023-04-01T02:24:27;8.00;99.90
16829;DHT22;8531;48.078;11.968;2023-04-01T02:26:55;8.00;99.90
16829;DHT22;8531;48.078;11.968;2023-04-01T02:29:23;8.00;99.90
16829;DHT22;8531;48.078;11.968;2023-04-01T02:31:50;8.00;99.90
16829;DHT22;8531;48.078;11.968;2023-04-01T02:34:17;8.00;99.90
16829;DHT22;8531;48.078;11.968;2023-04-01T02:36:42;8.00;99.90
16829;DHT22;8531;48.078;11.968;2023-04-01T02:39:09;8.00;99.90
16829;DHT22;8531;48.078;11.968;2023-04-01T02:41:42;7.90;99.90
16829;DHT22;8531;48.078;11.968;2023-04-01T02:44:10;7.90;99.90
16829;DHT22;8531;48.078;11.968;2023-04-01T02:46:36;7.90;99.90
16829;DHT22;8531;48.078;11.968;2023-04-01T02:49:02;8.00;99.90
16829;DHT22;8531;48.078;11.968;2023-04-01T02:51:28;8.00;99.90
16829;DHT22;8531;48.078;11.968;2023-04-01T02:53:54;8.00;99.90
16829;DHT22;8531;48.078;11.968;2023-04-01T02:56:20;8.00;99.90
16829;DHT22;8531;48.078;11.968;2023-04-01T02:58:47;8.00;99.90
16829;DHT22;8531;48.078;11.968;2023-04-01T03:01:12;8.00;99.90
16829;DHT22;8531;48.078;11.968;2023-04-01T03:03:38;8.00;99.90
16829;DHT22;8531;48.078;11.968;2023-04-01T03:06:15;8.00;99.90
16829;DHT22;8531;48.078;11.968;2023-04-01T03:08:41;8.00;99.90
16829;DHT22;8531;48.078;11.968;2023-04-01T03:11:08;8.00;99.90
16829;DHT22;8531;48.078;11.968;2023-04-01T03:13:34;8.00;99.90
16829;DHT22;8531;48.078;11.968;2023-04-01T03:15:59;8.00;99.90
16829;DHT22;8531;48.078;11.968;2023-04-01T03:18:25;8.00;99.90
16829;DHT22;8531;48.078;11.968;2023-04-01T03:20:51;8.00;99.90
16829;DHT22;8531;48.078;11.968;2023-04-01T03:23:16;8.00;99.90
16829;DHT22;8531;48.078;11.968;2023-04-01T03:25:44;8.00;99.90
16829;DHT22;8531;48.078;11.968;2023-04-01T03:28:10;8.00;99.90
16829;DHT22;8531;48.078;11.968;2023-04-01T03:30:37;8.00;99.90
16829;DHT22;8531;48.078;11.968;2023-04-01T03:33:03;8.00;99.90
16829;DHT22;8531;48.078;11.968;2023-04-01T03:35:29;8.00;99.90
16829;DHT22;8531;48.078;11.968;2023-04-01T03:37:55;8.00;99.90
16829;DHT22;8531;48.078;11.968;2023-04-01T03:40:21;8.00;99.90
16829;DHT22;8531;48.078;11.968;2023-04-01T03:42:47;7.90;99.90
16829;DHT22;8531;48.078;11.968;2023-04-01T03:45:13;8.00;99.90
16829;DHT22;8531;48.078;11.968;2023-04-01T03:47:39;8.00;99.90
16829;DHT22;8531;48.078;11.968;2023-04-01T03:50:06;7.90;99.90
16829;DHT22;8531;48.078;11.968;2023-04-01T03:52:32;7.90;99.90
16829;DHT22;8531;48.078;11.968;2023-04-01T03:54:58;7.90;99.90
16829;DHT22;8531;48.078;11.968;2023-04-01T03:57:23;7.90;99.90
16829;DHT22;8531;48.078;11.968;2023-04-01T03:59:49;7.90;99.90
16829;DHT22;8531;48.078;11.968;2023-04-01T04:02:15;7.80;99.90
16829;DHT22;8531;48.078;11.968;2023-04-01T04:04:41;7.80;99.90
16829;DHT22;8531;48.078;11.968;2023-04-01T04:07:08;7.80;99.90
16829;DHT22;8531;48.078;11.968;2023-04-01T04:09:33;7.80;99.90
16829;DHT22;8531;48.078;11.968;2023-04-01T04:12:00;7.70;99.90
16829;DHT22;8531;48.078;11.968;2023-04-01T04:14:26;7.70;99.90
16829;DHT22;8531;48.078;11.968;2023-04-01T04:16:52;7.70;99.90
16829;DHT22;8531;48.078;11.968;2023-04-01T04:19:17;7.70;99.90
16829;DHT22;8531;48.078;11.968;2023-04-01T04:21:43;7.70;99.90
16829;DHT22;8531;48.078;11.968;2023-04-01T04:24:09;7.70;99.90
16829;DHT22;8531;48.078;11.968;2023-04-01T04:26:35;7.70;99.90
16829;DHT22;8531;48.078;11.968;2023-04-01T04:29:01;7.70;99.90
16829;DHT22;8531;48.078;11.968;2023-04-01T04:31:27;7.60;99.90
16829;DHT22;8531;48.078;11.968;2023-04-01T04:33:53;7.60;99.90
16829;DHT22;8531;48.078;11.968;2023-04-01T04:36:20;7.60;99.90
16829;DHT22;8531;48.078;11.968;2023-04-01T04:38:46;7.50;99.90
16829;DHT22;8531;48.078;11.968;2023-04-01T04:41:16;7.50;99.90
16829;DHT22;8531;48.078;11.968;2023-04-01T04:43:49;7.50;99.90
16829;DHT22;8531;48.078;11.968;2023-04-01T04:46:15;7.50;99.90
16829;DHT22;8531;48.078;11.968;2023-04-01T04:48:41;7.50;99.90
16829;DHT22;8531;48.078;11.968;2023-04-01T04:51:16;7.50;99.90
16829;DHT22;8531;48.078;11.968;2023-04-01T04:53:42;7.50;99.90
16829;DHT22;8531;48.078;11.968;2023-04-01T04:56:07;7.50;99.90
16829;DHT22;8531;48.078;11.968;2023-04-01T04:58:33;7.60;99.90
16829;DHT22;8531;48.078;11.968;2023-04-01T05:01:04;7.50;99.90
16829;DHT22;8531;48.078;11.968;2023-04-01T05:03:30;7.60;99.90
16829;DHT22;8531;48.078;11.968;2023-04-01T05:05:56;7.60;99.90
16829;DHT22;8531;48.078;11.968;2023-04-01T05:08:21;7.60;99.90
16829;DHT22;8531;48.078;11.968;2023-04-01T05:10:47;7.60;99.90
16829;DHT22;8531;48.078;11.968;2023-04-01T05:13:13;7.60;99.90
16829;DHT22;8531;48.078;11.968;2023-04-01T05:15:39;7.60;99.90
16829;DHT22;8531;48.078;11.968;2023-04-01T05:18:04;7.60;99.90
16829;DHT22;8531;48.078;11.968;2023-04-01T05:20:30;7.60;99.90
16829;DHT22;8531;48.078;11.968;2023-04-01T05:22:59;7.60;99.90
16829;DHT22;8531;48.078;11.968;2023-04-01T05:25:25;7.70;99.90
16829;DHT22;8531;48.078;11.968;2023-04-01T05:27:51;7.70;99.90
16829;DHT22;8531;48.078;11.968;2023-04-01T05:30:17;7.70;99.90
16829;DHT22;8531;48.078;11.968;2023-04-01T05:32:43;7.70;99.90
16829;DHT22;8531;48.078;11.968;2023-04-01T05:35:09;7.70;99.90
16829;DHT22;8531;48.078;11.968;2023-04-01T05:37:35;7.70;99.90
16829;DHT22;8531;48.078;11.968;2023-04-01T05:40:02;7.70;99.90
16829;DHT22;8531;48.078;11.968;2023-04-01T05:42:28;7.80;99.90
16829;DHT22;8531;48.078;11.968;2023-04-01T05:44:54;7.80;99.90
16829;DHT22;8531;48.078;11.968;2023-04-01T05:47:21;7.80;99.90
16829;DHT22;8531;48.078;11.968;2023-04-01T05:49:47;7.90;99.90
16829;DHT22;8531;48.078;11.968;2023-04-01T05:52:13;7.90;99.90
16829;DHT22;8531;48.078;11.968;2023-04-01T05:54:38;7.90;99.90
16829;DHT22;8531;48.078;11.968;2023-04-01T05:57:04;8.00;99.90
16829;DHT22;8531;48.078;11.968;2023-04-01T05:59:30;8.00;99.90
16829;DHT22;8531;48.078;11.968;2023-04-01T06:01:57;8.10;99.90
16829;DHT22;8531;48.078;11.968;2023-04-01T06:04:23;8.10;99.90
16829;DHT22;8531;48.078;11.968;2023-04-01T06:06:49;8.20;99.90
16829;DHT22;8531;48.078;11.968;2023-04-01T06:09:21;8.20;99.90
16829;DHT22;8531;48.078;11.968;2023-04-01T06:25:23;8.50;99.90
16829;DHT22;8531;48.078;11.968;2023-04-01T06:31:07;8.60;99.90
16829;DHT22;8531;48.078;11.968;2023-04-01T06:38:37;8.60;99.90
16829;DHT22;8531;48.078;11.968;2023-04-01T06:41:39;8.70;99.90
16829;DHT22;8531;48.078;11.968;2023-04-01T06:54:40;9.00;99.90
16829;DHT22;8531;48.078;11.968;2023-04-01T06:59:42;9.10;99.90
16829;DHT22;8531;48.078;11.968;2023-04-01T07:02:23;9.10;99.90
16829;DHT22;8531;48.078;11.968;2023-04-01T07:04:51;9.20;99.90
16829;DHT22;8531;48.078;11.968;2023-04-01T07:07:41;9.40;99.90
16829;DHT22;8531;48.078;11.968;2023-04-01T07:10:19;9.50;99.90
16829;DHT22;8531;48.078;11.968;2023-04-01T07:12:55;9.50;99.90
16829;DHT22;8531;48.078;11.968;2023-04-01T07:15:36;9.60;99.90
16829;DHT22;8531;48.078;11.968;2023-04-01T07:18:12;9.80;99.90
16829;DHT22;8531;48.078;11.968;2023-04-01T07:20:39;10.00;99.90
16829;DHT22;8531;48.078;11.968;2023-04-01T07:23:41;10.00;99.90
16829;DHT22;8531;48.078;11.968;2023-04-01T07:26:19;10.10;99.90
16829;DHT22;8531;48.078;11.968;2023-04-01T07:28:46;10.10;99.90
16829;DHT22;8531;48.078;11.968;2023-04-01T07:32:01;10.00;99.90
16829;DHT22;8531;48.078;11.968;2023-04-01T07:34:09;9.90;99.90
16829;DHT22;8531;48.078;11.968;2023-04-01T07:37:06;9.80;99.90
16829;DHT22;8531;48.078;11.968;2023-04-01T07:50:13;9.40;99.90
16829;DHT22;8531;48.078;11.968;2023-04-01T07:53:11;9.40;99.90
16829;DHT22;8531;48.078;11.968;2023-04-01T07:58:13;9.50;99.90
16829;DHT22;8531;48.078;11.968;2023-04-01T08:00:55;9.70;99.90
16829;DHT22;8531;48.078;11.968;2023-04-01T08:06:06;9.80;99.90
16829;DHT22;8531;48.078;11.968;2023-04-01T08:25:42;10.00;99.90
16829;DHT22;8531;48.078;11.968;2023-04-01T08:28:17;10.00;99.90
16829;DHT22;8531;48.078;11.968;2023-04-01T08:33:46;9.90;99.90
16829;DHT22;8531;48.078;11.968;2023-04-01T08:36:20;10.00;99.90
16829;DHT22;8531;48.078;11.968;2023-04-01T08:38:57;10.00;99.90
16829;DHT22;8531;48.078;11.968;2023-04-01T08:53:27;10.80;99.90
16829;DHT22;8531;48.078;11.968;2023-04-01T09:12:30;11.70;99.90
16829;DHT22;8531;48.078;11.968;2023-04-01T09:15:06;11.80;99.90
16829;DHT22;8531;48.078;11.968;2023-04-01T09:20:49;11.90;99.90
16829;DHT22;8531;48.078;11.968;2023-04-01T09:23:59;11.90;99.90
16829;DHT22;8531;48.078;11.968;2023-04-01T09:29:41;11.50;99.90
16829;DHT22;8531;48.078;11.968;2023-04-01T09:32:31;11.40;99.90
16829;DHT22;8531;48.078;11.968;2023-04-01T09:40:40;11.50;99.90
16829;DHT22;8531;48.078;11.968;2023-04-01T09:46:26;11.80;99.90
16829;DHT22;8531;48.078;11.968;2023-04-01T09:52:10;12.50;99.90
16829;DHT22;8531;48.078;11.968;2023-04-01T10:00:44;12.10;99.90
16829;DHT22;8531;48.078;11.968;2023-04-01T10:32:05;12.20;99.90
16829;DHT22;8531;48.078;11.968;2023-04-01T10:44:03;12.30;99.90
16829;DHT22;8531;48.078;11.968;2023-04-01T10:49:39;12.50;99.90
16829;DHT22;8531;48.078;11.968;2023-04-01T11:06:49;12.20;99.90
16829;DHT22;8531;48.078;11.968;2023-04-01T11:12:47;12.10;99.90
16829;DHT22;8531;48.078;11.968;2023-04-01T11:23:47;12.10;99.90
16829;DHT22;8531;48.078;11.968;2023-04-01T11:34:32;11.70;99.90
16829;DHT22;8531;48.078;11.968;2023-04-01T11:37:17;11.60;99.90
16829;DHT22;8531;48.078;11.968;2023-04-01T11:48:27;11.50;99.90
16829;DHT22;8531;48.078;11.968;2023-04-01T11:51:20;11.40;99.90
16829;DHT22;8531;48.078;11.968;2023-04-01T11:57:02;11.30;99.90
16829;DHT22;8531;48.078;11.968;2023-04-01T12:07:56;11.20;99.90
16829;DHT22;8531;48.078;11.968;2023-04-01T12:10:39;11.10;99.90
16829;DHT22;8531;48.078;11.968;2023-04-01T12:13:28;11.00;99.90
16829;DHT22;8531;48.078;11.968;2023-04-01T12:16:24;11.10;99.90
16829;DHT22;8531;48.078;11.968;2023-04-01T12:35:22;10.30;99.90
16829;DHT22;8531;48.078;11.968;2023-04-01T13:16:05;9.40;99.90
16829;DHT22;8531;48.078;11.968;2023-04-01T13:18:28;9.20;99.90
16829;DHT22;8531;48.078;11.968;2023-04-01T13:26:36;9.30;99.90
16829;DHT22;8531;48.078;11.968;2023-04-01T13:29:38;9.30;99.90
16829;DHT22;8531;48.078;11.968;2023-04-01T13:35:18;9.10;99.90
16829;DHT22;8531;48.078;11.968;2023-04-01T14:02:51;9.10;99.90
16829;DHT22;8531;48.078;11.968;2023-04-01T14:05:44;9.00;99.90
16829;DHT22;8531;48.078;11.968;2023-04-01T14:08:18;8.90;99.90
16829;DHT22;8531;48.078;11.968;2023-04-01T14:21:51;9.00;99.90
16829;DHT22;8531;48.078;11.968;2023-04-01T14:27:57;8.90;99.90
16829;DHT22;8531;48.078;11.968;2023-04-01T14:50:25;8.90;99.90
16829;DHT22;8531;48.078;11.968;2023-04-01T14:55:55;9.00;99.90
16829;DHT22;8531;48.078;11.968;2023-04-01T14:58:23;8.90;99.90
16829;DHT22;8531;48.078;11.968;2023-04-01T15:12:57;9.00;99.90
16829;DHT22;8531;48.078;11.968;2023-04-01T15:18:14;9.10;99.90
16829;DHT22;8531;48.078;11.968;2023-04-01T15:21:10;9.10;99.90
16829;DHT22;8531;48.078;11.968;2023-04-01T15:26:50;9.10;99.90
16829;DHT22;8531;48.078;11.968;2023-04-01T15:32:17;9.10;99.90
16829;DHT22;8531;48.078;11.968;2023-04-01T15:35:14;9.10;99.90
16829;DHT22;8531;48.078;11.968;2023-04-01T15:38:07;9.10;99.90
16829;DHT22;8531;48.078;11.968;2023-04-01T15:40:52;9.10;99.90
16829;DHT22;8531;48.078;11.968;2023-04-01T15:46:14;9.10;99.90
16829;DHT22;8531;48.078;11.968;2023-04-01T15:51:45;9.20;99.90
16829;DHT22;8531;48.078;11.968;2023-04-01T15:54:21;9.30;99.90
16829;DHT22;8531;48.078;11.968;2023-04-01T16:19:16;9.40;99.90
16829;DHT22;8531;48.078;11.968;2023-04-01T16:22:05;9.30;99.90
16829;DHT22;8531;48.078;11.968;2023-04-01T16:24:48;9.30;99.90
16829;DHT22;8531;48.078;11.968;2023-04-01T16:30:23;9.40;99.90
16829;DHT22;8531;48.078;11.968;2023-04-01T16:33:00;9.30;99.90
16829;DHT22;8531;48.078;11.968;2023-04-01T16:38:24;9.40;99.90
16829;DHT22;8531;48.078;11.968;2023-04-01T16:43:38;9.40;99.90
16829;DHT22;8531;48.078;11.968;2023-04-01T16:46:32;9.40;99.90
16829;DHT22;8531;48.078;11.968;2023-04-01T16:51:52;9.40;99.90
16829;DHT22;8531;48.078;11.968;2023-04-01T16:54:47;9.40;99.90
16829;DHT22;8531;48.078;11.968;2023-04-01T16:58:00;9.40;99.90
16829;DHT22;8531;48.078;11.968;2023-04-01T17:00:49;9.30;99.90
16829;DHT22;8531;48.078;11.968;2023-04-01T17:26:35;9.10;99.90
16829;DHT22;8531;48.078;11.968;2023-04-01T17:29:19;9.10;99.90
16829;DHT22;8531;48.078;11.968;2023-04-01T17:32:13;9.00;99.90
16829;DHT22;8531;48.078;11.968;2023-04-01T17:43:24;8.90;99.90
16829;DHT22;8531;48.078;11.968;2023-04-01T17:46:01;9.00;99.90
16829;DHT22;8531;48.078;11.968;2023-04-01T17:48:44;8.90;99.90
16829;DHT22;8531;48.078;11.968;2023-04-01T17:51:46;8.90;99.90
16829;DHT22;8531;48.078;11.968;2023-04-01T17:59:58;8.90;99.90
16829;DHT22;8531;48.078;11.968;2023-04-01T18:08:30;9.00;99.90
16829;DHT22;8531;48.078;11.968;2023-04-01T18:11:25;9.00;99.90
16829;DHT22;8531;48.078;11.968;2023-04-01T18:19:20;9.00;99.90
16829;DHT22;8531;48.078;11.968;2023-04-01T18:21:49;9.00;99.90
16829;DHT22;8531;48.078;11.968;2023-04-01T18:24:45;9.00;99.90
16829;DHT22;8531;48.078;11.968;2023-04-01T18:27:38;9.00;99.90
16829;DHT22;8531;48.078;11.968;2023-04-01T18:30:17;9.00;99.90
16829;DHT22;8531;48.078;11.968;2023-04-01T18:38:28;9.00;99.90
16829;DHT22;8531;48.078;11.968;2023-04-01T18:41:50;9.00;99.90
16829;DHT22;8531;48.078;11.968;2023-04-01T18:44:30;9.00;99.90
16829;DHT22;8531;48.078;11.968;2023-04-01T18:50:28;8.90;99.90
16829;DHT22;8531;48.078;11.968;2023-04-01T18:56:00;8.90;99.90
16829;DHT22;8531;48.078;11.968;2023-04-01T19:04:47;8.80;99.90
16829;DHT22;8531;48.078;11.968;2023-04-01T19:24:06;8.70;99.90
16829;DHT22;8531;48.078;11.968;2023-04-01T19:29:31;8.80;99.90
16829;DHT22;8531;48.078;11.968;2023-04-01T19:42:56;8.80;99.90
16829;DHT22;8531;48.078;11.968;2023-04-01T19:45:40;8.80;99.90
16829;DHT22;8531;48.078;11.968;2023-04-01T19:48:39;8.80;99.90
16829;DHT22;8531;48.078;11.968;2023-04-01T19:54:17;8.70;99.90
16829;DHT22;8531;48.078;11.968;2023-04-01T20:04:53;8.70;99.90
16829;DHT22;8531;48.078;11.968;2023-04-01T20:07:30;8.70;99.90
16829;DHT22;8531;48.078;11.968;2023-04-01T20:10:14;8.70;99.90
16829;DHT22;8531;48.078;11.968;2023-04-01T20:13:03;8.70;99.90
16829;DHT22;8531;48.078;11.968;2023-04-01T20:15:40;8.70;99.90
16829;DHT22;8531;48.078;11.968;2023-04-01T20:18:26;8.70;99.90
16829;DHT22;8531;48.078;11.968;2023-04-01T20:26:43;8.70;99.90
16829;DHT22;8531;48.078;11.968;2023-04-01T20:35:22;8.50;99.90
16829;DHT22;8531;48.078;11.968;2023-04-01T20:40:48;8.40;99.90
16829;DHT22;8531;48.078;11.968;2023-04-01T20:43:30;8.40;99.90
16829;DHT22;8531;48.078;11.968;2023-04-01T20:46:20;8.40;99.90
16829;DHT22;8531;48.078;11.968;2023-04-01T20:49:20;8.40;99.90
16829;DHT22;8531;48.078;11.968;2023-04-01T20:51:59;8.40;99.90
16829;DHT22;8531;48.078;11.968;2023-04-01T20:57:48;8.30;99.90
16829;DHT22;8531;48.078;11.968;2023-04-01T21:06:03;8.30;99.90
16829;DHT22;8531;48.078;11.968;2023-04-01T21:11:30;8.30;99.90
16829;DHT22;8531;48.078;11.968;2023-04-01T21:22:26;8.30;99.90
16829;DHT22;8531;48.078;11.968;2023-04-01T21:27:42;8.40;99.90
16829;DHT22;8531;48.078;11.968;2023-04-01T21:44:46;8.50;99.90
16829;DHT22;8531;48.078;11.968;2023-04-01T21:47:28;8.50;99.90
16829;DHT22;8531;48.078;11.968;2023-04-01T22:04:24;8.40;99.90
16829;DHT22;8531;48.078;11.968;2023-04-01T22:06:56;8.40;99.90
16829;DHT22;8531;48.078;11.968;2023-04-01T22:09:38;8.40;99.90
16829;DHT22;8531;48.078;11.968;2023-04-01T22:15:27;8.30;99.90
16829;DHT22;8531;48.078;11.968;2023-04-01T22:18:07;8.30;99.90
16829;DHT22;8531;48.078;11.968;2023-04-01T22:20:48;8.30;99.90
16829;DHT22;8531;48.078;11.968;2023-04-01T22:23:31;8.30;99.90
16829;DHT22;8531;48.078;11.968;2023-04-01T22:26:19;8.30;99.90
16829;DHT22;8531;48.078;11.968;2023-04-01T22:29:06;8.30;99.90
16829;DHT22;8531;48.078;11.968;2023-04-01T22:31:45;8.30;99.90
16829;DHT22;8531;48.078;11.968;2023-04-01T22:40:13;8.20;99.90
16829;DHT22;8531;48.078;11.968;2023-04-01T22:42:47;8.20;99.90
16829;DHT22;8531;48.078;11.968;2023-04-01T22:45:39;8.20;99.90
16829;DHT22;8531;48.078;11.968;2023-04-01T22:48:18;8.20;99.90
16829;DHT22;8531;48.078;11.968;2023-04-01T22:56:39;8.20;99.90
16829;DHT22;8531;48.078;11.968;2023-04-01T22:59:37;8.20;99.90
16829;DHT22;8531;48.078;11.968;2023-04-01T23:02:21;8.20;99.90
16829;DHT22;8531;48.078;11.968;2023-04-01T23:04:53;8.30;99.90
16829;DHT22;8531;48.078;11.968;2023-04-01T23:10:27;8.30;99.90
16829;DHT22;8531;48.078;11.968;2023-04-01T23:12:58;8.20;99.90
16829;DHT22;8531;48.078;11.968;2023-04-01T23:15:24;8.20;99.90
16829;DHT22;8531;48.078;11.968;2023-04-01T23:18:33;8.20;99.90
16829;DHT22;8531;48.078;11.968;2023-04-01T23:21:15;8.20;99.90
16829;DHT22;8531;48.078;11.968;2023-04-01T23:24:35;8.20;99.90
16829;DHT22;8531;48.078;11.968;2023-04-01T23:27:12;8.20;99.90
16829;DHT22;8531;48.078;11.968;2023-04-01T23:29:41;8.20;99.90
16829;DHT22;8531;48.078;11.968;2023-04-01T23:32:18;8.20;99.90
16829;DHT22;8531;48.078;11.968;2023-04-01T23:34:49;8.20;99.90
16829;DHT22;8531;48.078;11.968;2023-04-01T23:37:16;8.20;99.90
16829;DHT22;8531;48.078;11.968;2023-04-01T23:39:46;8.20;99.90
16829;DHT22;8531;48.078;11.968;2023-04-01T23:44:41;8.30;99.90
16829;DHT22;8531;48.078;11.968;2023-04-01T23:47:14;8.30;99.90
16829;DHT22;8531;48.078;11.968;2023-04-01T23:49:59;8.30;99.90
16829;DHT22;8531;48.078;11.968;2023-04-01T23:52:26;8.30;99.90
16829;DHT22;8531;48.078;11.968;2023-04-01T23:55:08;8.30;99.90
16829;DHT22;8531;48.078;11.968;2023-04-01T23:57:38;8.20;99.90
